createdAt,value
2022-11-07T00:00:07.318Z,22.60
2022-11-07T00:02:33.934Z,22.60
2022-11-07T00:05:01.247Z,22.60
2022-11-07T00:07:27.827Z,22.60
2022-11-07T00:09:54.423Z,22.60
2022-11-07T00:12:20.990Z,22.60
2022-11-07T00:14:47.575Z,22.60
2022-11-07T00:17:14.142Z,22.60
2022-11-07T00:19:40.714Z,22.60
2022-11-07T00:22:07.290Z,22.60
2022-11-07T00:24:33.888Z,22.60
2022-11-07T00:27:00.510Z,22.60
2022-11-07T00:29:27.141Z,22.60
2022-11-07T00:31:53.726Z,22.60
2022-11-07T00:34:20.285Z,22.60
2022-11-07T00:36:46.895Z,22.60
2022-11-07T00:39:13.501Z,22.60
2022-11-07T00:41:40.142Z,22.60
2022-11-07T00:44:06.751Z,22.60
2022-11-07T00:46:33.339Z,22.60
2022-11-07T00:48:59.967Z,22.60
2022-11-07T00:51:27.326Z,22.60
2022-11-07T00:53:54.002Z,22.50
2022-11-07T00:56:23.098Z,22.50
2022-11-07T00:58:53.034Z,22.50
2022-11-07T01:01:21.286Z,22.50
2022-11-07T01:04:06.766Z,22.50
2022-11-07T01:06:35.790Z,22.50
2022-11-07T01:09:02.361Z,22.50
2022-11-07T01:11:29.162Z,22.50
2022-11-07T01:13:59.655Z,22.50
2022-11-07T01:16:26.468Z,22.50
2022-11-07T01:18:53.236Z,22.50
2022-11-07T01:21:19.851Z,22.50
2022-11-07T01:23:46.852Z,22.50
2022-11-07T01:26:13.516Z,22.60
2022-11-07T01:28:40.207Z,22.60
2022-11-07T01:31:08.375Z,22.60
2022-11-07T01:33:35.141Z,22.60
2022-11-07T01:36:06.084Z,22.60
2022-11-07T01:38:32.975Z,22.60
2022-11-07T01:41:18.303Z,22.50
2022-11-07T01:43:46.251Z,22.50
2022-11-07T01:46:13.150Z,22.50
2022-11-07T01:48:40.177Z,22.50
2022-11-07T01:51:06.778Z,22.50
2022-11-07T01:53:34.763Z,22.50
2022-11-07T01:56:02.712Z,22.50
2022-11-07T01:58:29.315Z,22.50
2022-11-07T02:00:55.882Z,22.50
2022-11-07T02:03:22.514Z,22.40
2022-11-07T02:06:01.330Z,22.50
2022-11-07T02:08:28.097Z,22.50
2022-11-07T02:10:54.676Z,22.50
2022-11-07T02:13:26.602Z,22.50
2022-11-07T02:15:53.186Z,22.50
2022-11-07T02:18:20.050Z,22.40
2022-11-07T02:20:46.726Z,22.50
2022-11-07T02:23:27.433Z,22.50
2022-11-07T02:25:54.103Z,22.50
2022-11-07T02:28:20.744Z,22.50
2022-11-07T02:30:47.332Z,22.50
2022-11-07T02:33:20.986Z,22.50
2022-11-07T02:35:49.041Z,22.50
2022-11-07T02:38:26.451Z,22.50
2022-11-07T02:40:55.507Z,22.50
2022-11-07T02:43:23.143Z,22.50
2022-11-07T02:45:49.739Z,22.50
2022-11-07T02:48:16.468Z,22.50
2022-11-07T02:50:43.269Z,22.40
2022-11-07T02:53:09.964Z,22.50
2022-11-07T02:55:36.539Z,22.50
2022-11-07T02:58:03.139Z,22.50
2022-11-07T03:00:29.707Z,22.50
2022-11-07T03:02:56.338Z,22.50
2022-11-07T03:05:23.009Z,22.50
2022-11-07T03:07:50.137Z,22.50
2022-11-07T03:10:17.207Z,22.50
2022-11-07T03:12:43.783Z,22.50
2022-11-07T03:15:10.837Z,22.50
2022-11-07T03:17:37.518Z,22.50
2022-11-07T03:20:04.501Z,22.50
2022-11-07T03:22:31.066Z,22.50
2022-11-07T03:24:57.641Z,22.50
2022-11-07T03:27:24.239Z,22.40
2022-11-07T03:29:50.831Z,22.40
2022-11-07T03:32:17.451Z,22.40
2022-11-07T03:34:44.039Z,22.40
2022-11-07T03:37:10.598Z,22.40
2022-11-07T03:39:37.162Z,22.50
2022-11-07T03:42:03.878Z,22.50
2022-11-07T03:44:30.460Z,22.40
2022-11-07T03:46:57.017Z,22.40
2022-11-07T03:49:23.600Z,22.40
2022-11-07T03:51:50.177Z,22.40
2022-11-07T03:54:16.747Z,22.50
2022-11-07T03:56:43.322Z,22.50
2022-11-07T03:59:09.897Z,22.50
2022-11-07T04:01:36.593Z,22.40
2022-11-07T04:04:03.322Z,22.40
2022-11-07T04:06:29.888Z,22.40
2022-11-07T04:08:56.474Z,22.40
2022-11-07T04:11:41.865Z,22.40
2022-11-07T04:14:27.179Z,22.40
2022-11-07T04:17:12.568Z,22.40
2022-11-07T04:19:39.158Z,22.40
2022-11-07T04:22:05.721Z,22.40
2022-11-07T04:24:32.300Z,22.40
2022-11-07T04:27:17.415Z,22.40
2022-11-07T04:29:43.995Z,22.40
2022-11-07T04:32:10.570Z,22.40
2022-11-07T04:34:37.261Z,22.40
2022-11-07T04:37:03.820Z,22.40
2022-11-07T04:39:30.389Z,22.40
2022-11-07T04:41:57.090Z,22.40
2022-11-07T04:44:23.827Z,22.40
2022-11-07T04:46:50.402Z,22.40
2022-11-07T04:49:17.009Z,22.40
2022-11-07T04:51:43.660Z,22.40
2022-11-07T04:54:13.783Z,22.40
2022-11-07T04:56:40.563Z,22.40
2022-11-07T04:59:07.324Z,22.40
2022-11-07T05:01:33.947Z,22.40
2022-11-07T05:04:00.563Z,22.50
2022-11-07T05:06:27.151Z,22.40
2022-11-07T05:08:53.733Z,22.40
2022-11-07T05:11:20.344Z,22.40
2022-11-07T05:13:46.911Z,22.40
2022-11-07T05:16:15.145Z,22.40
2022-11-07T05:18:41.719Z,22.40
2022-11-07T05:21:08.317Z,22.40
2022-11-07T05:23:34.908Z,22.40
2022-11-07T05:26:01.528Z,22.40
2022-11-07T05:28:37.031Z,22.40
2022-11-07T05:31:06.032Z,22.40
2022-11-07T05:33:32.643Z,22.40
2022-11-07T05:36:09.022Z,22.40
2022-11-07T05:38:35.586Z,22.40
2022-11-07T05:41:05.081Z,22.40
2022-11-07T05:43:31.656Z,22.40
2022-11-07T05:46:01.426Z,22.40
2022-11-07T05:48:28.046Z,22.40
2022-11-07T05:50:54.632Z,22.40
2022-11-07T05:53:21.343Z,22.40
2022-11-07T05:55:48.129Z,22.40
2022-11-07T05:58:14.739Z,22.30
2022-11-07T06:00:41.368Z,22.40
2022-11-07T06:03:08.235Z,22.40
2022-11-07T06:05:34.833Z,22.40
2022-11-07T06:08:01.411Z,22.40
2022-11-07T06:10:28.013Z,22.40
2022-11-07T06:13:01.453Z,22.40
2022-11-07T06:15:29.365Z,22.40
2022-11-07T06:17:55.974Z,22.40
2022-11-07T06:20:22.572Z,22.40
2022-11-07T06:22:49.138Z,22.40
2022-11-07T06:25:15.768Z,22.40
2022-11-07T06:27:42.335Z,22.40
2022-11-07T06:30:09.493Z,22.40
2022-11-07T06:32:36.653Z,22.40
2022-11-07T06:35:03.301Z,22.40
2022-11-07T06:37:29.868Z,22.40
2022-11-07T06:39:56.450Z,22.40
2022-11-07T06:42:25.493Z,22.40
2022-11-07T06:44:52.072Z,22.40
2022-11-07T06:47:18.641Z,22.40
2022-11-07T06:49:45.217Z,22.40
2022-11-07T06:52:11.796Z,22.40
2022-11-07T06:54:38.418Z,22.40
2022-11-07T06:57:04.994Z,22.40
2022-11-07T06:59:31.574Z,22.40
2022-11-07T07:01:58.190Z,22.40
2022-11-07T07:04:24.805Z,22.40
2022-11-07T07:06:51.374Z,22.40
2022-11-07T07:09:17.939Z,22.40
2022-11-07T07:11:45.300Z,22.40
2022-11-07T07:14:12.459Z,22.40
2022-11-07T07:16:39.113Z,22.40
2022-11-07T07:19:05.731Z,22.40
2022-11-07T07:21:33.308Z,22.40
2022-11-07T07:23:59.865Z,22.50
2022-11-07T07:26:26.597Z,22.50
2022-11-07T07:28:53.160Z,22.60
2022-11-07T07:31:24.624Z,22.70
2022-11-07T07:33:51.234Z,22.70
2022-11-07T07:36:20.672Z,22.70
2022-11-07T07:38:48.159Z,22.70
2022-11-07T07:41:14.731Z,22.70
2022-11-07T07:43:41.319Z,22.70
2022-11-07T07:46:08.113Z,22.70
2022-11-07T07:48:34.980Z,22.60
2022-11-07T07:51:01.560Z,22.60
2022-11-07T07:53:28.125Z,22.60
2022-11-07T07:55:58.231Z,22.60
2022-11-07T07:58:25.410Z,22.60
2022-11-07T08:00:57.732Z,22.60
2022-11-07T08:03:24.889Z,22.60
2022-11-07T08:05:55.926Z,22.70
2022-11-07T08:08:22.875Z,22.70
2022-11-07T08:10:54.186Z,22.60
2022-11-07T08:13:24.828Z,22.70
2022-11-07T08:15:51.792Z,22.60
2022-11-07T08:18:19.709Z,22.70
2022-11-07T08:20:46.310Z,22.70
2022-11-07T08:23:16.393Z,22.70
2022-11-07T08:25:51.225Z,22.70
2022-11-07T08:28:17.944Z,22.70
2022-11-07T08:30:44.526Z,22.70
2022-11-07T08:33:11.206Z,22.70
2022-11-07T08:35:42.317Z,22.70
2022-11-07T08:38:09.591Z,22.70
2022-11-07T08:40:36.166Z,22.70
2022-11-07T08:43:02.736Z,22.70
2022-11-07T08:45:29.347Z,22.70
2022-11-07T08:47:59.247Z,22.70
2022-11-07T08:50:26.564Z,22.60
2022-11-07T08:52:55.844Z,22.70
2022-11-07T08:55:24.830Z,22.60
2022-11-07T08:57:51.390Z,22.60
2022-11-07T09:00:18.234Z,22.60
2022-11-07T09:03:23.947Z,22.60
2022-11-07T09:05:31.434Z,22.60
2022-11-07T09:07:58.013Z,22.60
2022-11-07T09:10:24.734Z,22.60
2022-11-07T09:12:51.382Z,22.70
2022-11-07T09:15:18.442Z,22.70
2022-11-07T09:17:46.471Z,22.70
2022-11-07T09:20:14.189Z,22.70
2022-11-07T09:22:41.031Z,22.70
2022-11-07T09:25:08.136Z,22.60
2022-11-07T09:27:34.937Z,22.70
2022-11-07T09:30:01.894Z,22.70
2022-11-07T09:32:44.298Z,22.70
2022-11-07T09:35:11.809Z,22.60
2022-11-07T09:37:39.240Z,22.70
2022-11-07T09:40:24.639Z,22.70
2022-11-07T09:43:21.917Z,22.70
2022-11-07T09:46:17.397Z,22.70
2022-11-07T09:48:46.187Z,22.70
2022-11-07T09:51:24.933Z,22.60
2022-11-07T09:53:54.380Z,22.70
2022-11-07T09:56:20.967Z,22.70
2022-11-07T09:58:51.502Z,22.70
2022-11-07T10:01:18.594Z,22.70
2022-11-07T10:04:10.151Z,22.70
2022-11-07T10:06:34.004Z,22.70
2022-11-07T10:09:03.528Z,22.70
2022-11-07T10:11:42.445Z,22.70
2022-11-07T10:14:33.982Z,22.70
2022-11-07T10:17:26.171Z,22.70
2022-11-07T10:20:30.412Z,22.70
2022-11-07T10:23:09.840Z,22.70
2022-11-07T10:25:41.986Z,22.60
2022-11-07T10:28:15.721Z,22.70
2022-11-07T10:30:47.994Z,22.70
2022-11-07T10:33:51.813Z,22.60
2022-11-07T10:36:22.541Z,22.70
2022-11-07T10:38:49.230Z,22.70
2022-11-07T10:41:17.365Z,22.70
2022-11-07T10:43:45.711Z,22.70
2022-11-07T10:46:24.355Z,22.70
2022-11-07T10:48:58.689Z,22.70
2022-11-07T10:51:38.390Z,22.70
2022-11-07T10:54:05.901Z,22.70
2022-11-07T10:56:44.277Z,22.70
2022-11-07T10:59:21.498Z,22.70
2022-11-07T11:01:52.925Z,22.70
2022-11-07T11:04:55.985Z,22.70
2022-11-07T11:07:28.393Z,22.70
2022-11-07T11:09:56.789Z,22.70
2022-11-07T11:12:29.971Z,22.70
2022-11-07T11:15:11.291Z,22.70
2022-11-07T11:17:37.902Z,22.70
2022-11-07T11:20:04.952Z,22.70
2022-11-07T11:22:31.534Z,22.60
2022-11-07T11:25:19.012Z,22.70
2022-11-07T11:27:46.609Z,22.70
2022-11-07T11:30:16.449Z,22.70
2022-11-07T11:32:49.722Z,22.60
2022-11-07T11:35:28.265Z,22.60
2022-11-07T11:38:01.022Z,22.70
2022-11-07T11:40:27.671Z,22.70
2022-11-07T11:43:30.434Z,22.70
2022-11-07T11:46:14.097Z,22.70
2022-11-07T11:48:57.036Z,22.70
2022-11-07T11:51:38.816Z,22.70
2022-11-07T11:54:09.251Z,22.70
2022-11-07T11:56:55.129Z,22.70
2022-11-07T11:59:28.146Z,22.70
2022-11-07T12:02:25.451Z,22.70
2022-11-07T12:05:14.059Z,22.70
2022-11-07T12:07:53.331Z,22.70
2022-11-07T12:10:26.862Z,22.70
2022-11-07T12:13:12.860Z,22.70
2022-11-07T12:16:05.919Z,22.70
2022-11-07T12:18:49.810Z,22.70
2022-11-07T12:21:36.333Z,22.70
2022-11-07T12:24:32.937Z,22.70
2022-11-07T12:27:25.691Z,22.70
2022-11-07T12:30:27.447Z,22.60
2022-11-07T12:33:30.012Z,22.60
2022-11-07T12:36:23.399Z,22.60
2022-11-07T12:39:12.094Z,22.60
2022-11-07T12:41:51.133Z,22.60
2022-11-07T12:44:45.800Z,22.60
2022-11-07T12:47:33.832Z,22.60
2022-11-07T12:50:42.487Z,22.60
2022-11-07T12:53:17.657Z,22.60
2022-11-07T12:55:52.206Z,22.60
2022-11-07T12:58:41.160Z,22.70
2022-11-07T13:01:07.769Z,22.70
2022-11-07T13:03:58.222Z,22.70
2022-11-07T13:06:33.477Z,22.70
2022-11-07T13:09:24.249Z,22.70
2022-11-07T13:11:53.857Z,22.70
2022-11-07T13:14:27.951Z,22.70
2022-11-07T13:17:17.304Z,22.70
2022-11-07T13:19:45.086Z,22.70
2022-11-07T13:22:17.599Z,22.60
2022-11-07T13:25:07.520Z,22.60
2022-11-07T13:27:40.943Z,22.60
2022-11-07T13:30:13.458Z,22.60
2022-11-07T13:32:44.176Z,22.60
2022-11-07T13:35:31.301Z,22.60
2022-11-07T13:38:14.330Z,22.60
2022-11-07T13:40:52.295Z,22.60
2022-11-07T13:43:40.240Z,22.60
2022-11-07T13:46:08.890Z,22.60
2022-11-07T13:48:47.753Z,22.50
2022-11-07T13:51:35.067Z,22.50
2022-11-07T13:54:04.331Z,22.60
2022-11-07T13:56:46.911Z,22.60
2022-11-07T13:59:36.429Z,22.60
2022-11-07T14:02:03.422Z,22.60
2022-11-07T14:04:30.818Z,22.60
2022-11-07T14:07:01.734Z,22.60
2022-11-07T14:09:30.090Z,22.60
2022-11-07T14:11:56.688Z,22.60
2022-11-07T14:14:24.387Z,22.70
2022-11-07T14:16:51.805Z,22.70
2022-11-07T14:19:30.187Z,22.60
2022-11-07T14:21:56.825Z,22.60
2022-11-07T14:24:28.145Z,22.60
2022-11-07T14:27:01.893Z,22.60
2022-11-07T14:29:28.452Z,22.70
2022-11-07T14:31:58.549Z,22.70
2022-11-07T14:34:25.297Z,22.70
2022-11-07T14:36:55.901Z,22.80
2022-11-07T14:39:23.617Z,22.80
2022-11-07T14:41:50.360Z,22.80
2022-11-07T14:47:25.147Z,22.90
2022-11-07T14:49:51.864Z,22.90
2022-11-07T14:52:50.438Z,23.00
2022-11-07T14:55:31.451Z,23.00
2022-11-07T14:58:01.911Z,23.00
2022-11-07T15:00:28.743Z,23.00
2022-11-07T15:02:56.370Z,23.00
2022-11-07T15:05:26.993Z,23.00
2022-11-07T15:07:53.638Z,23.00
2022-11-07T15:10:46.604Z,23.10
2022-11-07T15:13:24.285Z,23.10
2022-11-07T15:16:04.182Z,23.10
2022-11-07T15:18:30.794Z,23.10
2022-11-07T15:20:58.861Z,23.20
2022-11-07T15:23:28.083Z,23.20
2022-11-07T15:26:12.684Z,23.20
2022-11-07T15:28:42.244Z,23.20
2022-11-07T15:31:29.236Z,23.20
2022-11-07T15:33:57.976Z,23.20
2022-11-07T15:36:25.045Z,23.20
2022-11-07T15:38:51.712Z,23.20
2022-11-07T15:41:18.588Z,23.20
2022-11-07T15:43:45.201Z,23.30
2022-11-07T15:46:24.850Z,23.20
2022-11-07T15:48:51.428Z,23.20
2022-11-07T15:51:18.054Z,23.20
2022-11-07T15:53:44.642Z,23.20
2022-11-07T15:56:13.968Z,23.30
2022-11-07T15:58:40.656Z,23.20
2022-11-07T16:01:07.262Z,23.20
2022-11-07T16:03:33.905Z,23.30
2022-11-07T16:06:03.626Z,23.30
2022-11-07T16:08:30.287Z,23.30
2022-11-07T16:11:01.048Z,23.30
2022-11-07T16:13:28.198Z,23.30
2022-11-07T16:16:02.319Z,23.30
2022-11-07T16:18:31.977Z,23.30
2022-11-07T16:20:58.542Z,23.40
2022-11-07T16:23:25.117Z,23.40
2022-11-07T16:25:51.717Z,23.40
2022-11-07T16:28:21.771Z,23.40
2022-11-07T16:30:48.335Z,23.40
2022-11-07T16:33:14.914Z,23.40
2022-11-07T16:35:41.490Z,23.40
2022-11-07T16:38:15.749Z,23.40
2022-11-07T16:40:42.766Z,23.40
2022-11-07T16:43:09.361Z,23.40
2022-11-07T16:45:36.515Z,23.50
2022-11-07T16:48:06.498Z,23.50
2022-11-07T16:50:33.070Z,23.50
2022-11-07T16:52:59.645Z,23.50
2022-11-07T16:55:26.237Z,23.50
2022-11-07T16:57:53.982Z,23.50
2022-11-07T17:00:23.405Z,23.40
2022-11-07T17:02:50.431Z,23.40
2022-11-07T17:05:17.337Z,23.40
2022-11-07T17:07:43.965Z,23.40
2022-11-07T17:10:14.997Z,23.50
2022-11-07T17:12:41.579Z,23.50
2022-11-07T17:15:08.746Z,23.50
2022-11-07T17:17:35.364Z,23.50
2022-11-07T17:20:01.922Z,23.50
2022-11-07T17:22:28.507Z,23.50
2022-11-07T17:24:55.097Z,23.50
2022-11-07T17:27:23.650Z,23.50
2022-11-07T17:29:50.810Z,23.50
2022-11-07T17:32:17.463Z,23.50
2022-11-07T17:34:44.144Z,23.60
2022-11-07T17:37:14.009Z,23.60
2022-11-07T17:39:40.575Z,23.60
2022-11-07T17:42:08.423Z,23.60
2022-11-07T17:44:34.993Z,23.60
2022-11-07T17:47:02.619Z,23.60
2022-11-07T17:49:29.198Z,23.60
2022-11-07T17:51:55.983Z,23.60
2022-11-07T17:54:28.168Z,23.60
2022-11-07T17:56:55.985Z,23.60
2022-11-07T17:59:23.239Z,23.60
2022-11-07T18:01:49.983Z,23.60
2022-11-07T18:04:16.667Z,23.60
2022-11-07T18:06:43.384Z,23.60
2022-11-07T18:09:16.007Z,23.60
2022-11-07T18:11:42.762Z,23.60
2022-11-07T18:14:09.877Z,23.60
2022-11-07T18:16:37.296Z,23.50
2022-11-07T18:19:04.291Z,23.50
2022-11-07T18:21:30.956Z,23.50
2022-11-07T18:23:57.674Z,23.50
2022-11-07T18:26:27.145Z,23.50
2022-11-07T18:28:53.847Z,23.50
2022-11-07T18:31:22.016Z,23.50
2022-11-07T18:33:48.656Z,23.50
2022-11-07T18:36:17.513Z,23.50
2022-11-07T18:38:44.673Z,23.50
2022-11-07T18:41:12.775Z,23.50
2022-11-07T18:43:39.459Z,23.50
2022-11-07T18:46:08.683Z,23.40
2022-11-07T18:48:35.904Z,23.50
2022-11-07T18:51:02.740Z,23.40
2022-11-07T18:53:29.690Z,23.50
2022-11-07T18:56:04.458Z,23.50
2022-11-07T18:58:31.770Z,23.40
2022-11-07T19:01:08.522Z,23.40
2022-11-07T19:03:35.416Z,23.40
2022-11-07T19:06:04.717Z,23.40
2022-11-07T19:08:32.257Z,23.40
2022-11-07T19:10:59.337Z,23.40
2022-11-07T19:13:26.196Z,23.40
2022-11-07T19:15:53.000Z,23.40
2022-11-07T19:18:19.752Z,23.40
2022-11-07T19:20:46.713Z,23.40
2022-11-07T19:23:13.705Z,23.40
2022-11-07T19:25:40.990Z,23.40
2022-11-07T19:28:07.781Z,23.40
2022-11-07T19:30:34.629Z,23.40
2022-11-07T19:33:02.152Z,23.40
2022-11-07T19:35:32.335Z,23.40
2022-11-07T19:37:58.897Z,23.40
2022-11-07T19:40:25.486Z,23.40
2022-11-07T19:42:52.140Z,23.40
2022-11-07T19:45:19.355Z,23.40
2022-11-07T19:47:45.984Z,23.40
2022-11-07T19:50:12.566Z,23.40
2022-11-07T19:52:39.130Z,23.40
2022-11-07T19:55:05.918Z,23.40
2022-11-07T19:57:32.474Z,23.40
2022-11-07T19:59:59.049Z,23.40
2022-11-07T20:02:33.101Z,23.40
2022-11-07T20:05:01.262Z,23.40
2022-11-07T20:07:27.845Z,23.30
2022-11-07T20:09:54.904Z,23.40
2022-11-07T20:12:21.586Z,23.30
2022-11-07T20:14:48.177Z,23.30
2022-11-07T20:17:14.746Z,23.30
2022-11-07T20:19:41.317Z,23.30
2022-11-07T20:22:07.953Z,23.40
2022-11-07T20:24:34.530Z,23.30
2022-11-07T20:27:01.096Z,23.30
2022-11-07T20:29:27.662Z,23.40
2022-11-07T20:31:54.218Z,23.40
2022-11-07T20:34:20.848Z,23.40
2022-11-07T20:36:48.986Z,23.40
2022-11-07T20:39:15.618Z,23.30
2022-11-07T20:41:42.473Z,23.30
2022-11-07T20:44:13.838Z,23.30
2022-11-07T20:46:41.865Z,23.30
2022-11-07T20:49:10.491Z,23.30
2022-11-07T20:51:37.381Z,23.30
2022-11-07T20:54:04.043Z,23.30
2022-11-07T20:56:30.750Z,23.30
2022-11-07T20:58:57.938Z,23.30
2022-11-07T21:01:27.972Z,23.30
2022-11-07T21:03:55.047Z,23.30
2022-11-07T21:06:21.656Z,23.30
2022-11-07T21:08:49.295Z,23.20
2022-11-07T21:11:16.093Z,23.20
2022-11-07T21:13:46.476Z,23.20
2022-11-07T21:16:14.802Z,23.20
2022-11-07T21:18:41.424Z,23.20
2022-11-07T21:21:12.407Z,23.20
2022-11-07T21:23:39.122Z,23.20
2022-11-07T21:26:35.826Z,23.20
2022-11-07T21:29:03.191Z,23.20
2022-11-07T21:31:30.721Z,23.20
2022-11-07T21:33:57.528Z,23.10
2022-11-07T21:36:28.621Z,23.20
2022-11-07T21:38:58.839Z,23.10
2022-11-07T21:41:25.715Z,23.10
2022-11-07T21:43:52.434Z,23.10
2022-11-07T21:46:20.895Z,23.10
2022-11-07T21:48:47.717Z,23.10
2022-11-07T21:51:34.798Z,23.10
2022-11-07T21:54:01.734Z,23.10
2022-11-07T21:56:32.829Z,23.10
2022-11-07T21:59:01.059Z,23.10
2022-11-07T22:01:27.815Z,23.10
2022-11-07T22:04:11.121Z,23.10
2022-11-07T22:06:43.768Z,23.10
2022-11-07T22:09:13.044Z,23.10
2022-11-07T22:11:39.634Z,23.10
2022-11-07T22:14:06.239Z,23.10
2022-11-07T22:16:32.977Z,23.00
2022-11-07T22:18:59.743Z,23.00
2022-11-07T22:21:26.320Z,23.00
2022-11-07T22:23:52.897Z,23.00
2022-11-07T22:26:21.412Z,23.00
2022-11-07T22:28:48.173Z,23.00
2022-11-07T22:31:25.295Z,23.00
2022-11-07T22:33:52.414Z,23.00
2022-11-07T22:36:19.150Z,23.00
2022-11-07T22:38:45.761Z,23.00
2022-11-07T22:41:20.521Z,23.00
2022-11-07T22:43:47.262Z,23.00
2022-11-07T22:46:16.453Z,23.00
2022-11-07T22:48:43.259Z,22.90
2022-11-07T22:51:11.449Z,23.00
2022-11-07T22:53:40.948Z,22.90
2022-11-07T22:56:17.840Z,22.90
2022-11-07T22:58:44.735Z,22.90
2022-11-07T23:01:17.884Z,22.90
2022-11-07T23:03:44.509Z,22.90
2022-11-07T23:06:11.181Z,22.90
2022-11-07T23:08:37.913Z,23.00
2022-11-07T23:14:00.219Z,22.90
2022-11-07T23:16:32.514Z,22.90
2022-11-07T23:19:00.400Z,22.90
2022-11-07T23:21:27.171Z,22.90
2022-11-07T23:23:54.626Z,22.90
2022-11-07T23:26:21.270Z,22.90
2022-11-07T23:28:47.873Z,22.90
2022-11-07T23:31:14.457Z,22.90
2022-11-07T23:33:41.154Z,22.90
2022-11-07T23:36:10.079Z,22.90
2022-11-07T23:38:36.670Z,22.90
2022-11-07T23:41:07.079Z,22.90
2022-11-07T23:43:33.817Z,22.80
2022-11-07T23:46:19.311Z,22.80
2022-11-07T23:49:04.768Z,22.80
2022-11-07T23:51:31.453Z,22.80
2022-11-07T23:54:16.489Z,22.80
2022-11-07T23:56:43.182Z,22.80
2022-11-07T23:59:28.245Z,22.80
